sensor_id;sensor_type;location;lat;lon;timestamp;P1;durP1;ratioP1;P2;durP2;ratioP2
74415;SDS011;62850;42.428;25.618;2023-05-29T00:01:32;4.97;;;2.63;;
74415;SDS011;62850;42.428;25.618;2023-05-29T00:03:58;4.13;;;2.30;;
74415;SDS011;62850;42.428;25.618;2023-05-29T00:06:23;6.25;;;2.08;;
74415;SDS011;62850;42.428;25.618;2023-05-29T00:08:49;3.55;;;2.20;;
74415;SDS011;62850;42.428;25.618;2023-05-29T00:11:15;6.50;;;2.65;;
74415;SDS011;62850;42.428;25.618;2023-05-29T00:13:40;4.03;;;2.20;;
74415;SDS011;62850;42.428;25.618;2023-05-29T00:16:06;4.78;;;2.15;;
74415;SDS011;62850;42.428;25.618;2023-05-29T00:18:34;6.10;;;2.45;;
74415;SDS011;62850;42.428;25.618;2023-05-29T00:20:59;5.78;;;2.20;;
74415;SDS011;62850;42.428;25.618;2023-05-29T00:23:25;5.45;;;2.38;;
74415;SDS011;62850;42.428;25.618;2023-05-29T00:25:51;5.13;;;2.10;;
74415;SDS011;62850;42.428;25.618;2023-05-29T00:28:16;5.82;;;2.33;;
74415;SDS011;62850;42.428;25.618;2023-05-29T00:30:42;4.75;;;2.15;;
74415;SDS011;62850;42.428;25.618;2023-05-29T00:33:07;5.30;;;2.28;;
74415;SDS011;62850;42.428;25.618;2023-05-29T00:35:33;5.45;;;2.30;;
74415;SDS011;62850;42.428;25.618;2023-05-29T00:37:59;6.25;;;2.63;;
74415;SDS011;62850;42.428;25.618;2023-05-29T00:40:25;8.23;;;2.90;;
74415;SDS011;62850;42.428;25.618;2023-05-29T00:42:50;5.75;;;2.60;;
74415;SDS011;62850;42.428;25.618;2023-05-29T00:45:16;6.97;;;3.05;;
74415;SDS011;62850;42.428;25.618;2023-05-29T00:47:42;6.50;;;3.10;;
74415;SDS011;62850;42.428;25.618;2023-05-29T00:50:10;4.55;;;2.78;;
74415;SDS011;62850;42.428;25.618;2023-05-29T00:52:39;8.32;;;3.22;;
74415;SDS011;62850;42.428;25.618;2023-05-29T00:55:05;6.30;;;3.25;;
74415;SDS011;62850;42.428;25.618;2023-05-29T00:57:33;8.00;;;3.47;;
74415;SDS011;62850;42.428;25.618;2023-05-29T00:59:59;7.05;;;3.20;;
74415;SDS011;62850;42.428;25.618;2023-05-29T01:02:25;6.03;;;3.50;;
74415;SDS011;62850;42.428;25.618;2023-05-29T01:04:54;6.88;;;3.80;;
74415;SDS011;62850;42.428;25.618;2023-05-29T01:07:21;5.68;;;3.30;;
74415;SDS011;62850;42.428;25.618;2023-05-29T01:09:47;7.30;;;3.80;;
74415;SDS011;62850;42.428;25.618;2023-05-29T01:20:09;7.47;;;4.22;;
74415;SDS011;62850;42.428;25.618;2023-05-29T01:25:35;6.28;;;4.15;;
74415;SDS011;62850;42.428;25.618;2023-05-29T01:28:07;6.85;;;4.25;;
74415;SDS011;62850;42.428;25.618;2023-05-29T01:30:35;10.93;;;4.60;;
74415;SDS011;62850;42.428;25.618;2023-05-29T01:33:02;7.10;;;4.95;;
74415;SDS011;62850;42.428;25.618;2023-05-29T01:35:28;8.35;;;4.15;;
74415;SDS011;62850;42.428;25.618;2023-05-29T01:37:54;7.63;;;4.80;;
74415;SDS011;62850;42.428;25.618;2023-05-29T01:40:20;6.40;;;4.28;;
74415;SDS011;62850;42.428;25.618;2023-05-29T01:42:45;8.93;;;4.80;;
74415;SDS011;62850;42.428;25.618;2023-05-29T01:45:11;10.27;;;5.05;;
74415;SDS011;62850;42.428;25.618;2023-05-29T01:47:37;9.20;;;4.95;;
74415;SDS011;62850;42.428;25.618;2023-05-29T01:50:03;6.57;;;4.50;;
74415;SDS011;62850;42.428;25.618;2023-05-29T01:52:29;6.13;;;3.95;;
74415;SDS011;62850;42.428;25.618;2023-05-29T01:54:55;6.15;;;4.00;;
74415;SDS011;62850;42.428;25.618;2023-05-29T01:57:21;7.32;;;4.28;;
74415;SDS011;62850;42.428;25.618;2023-05-29T01:59:47;8.63;;;4.20;;
74415;SDS011;62850;42.428;25.618;2023-05-29T02:02:14;7.13;;;4.70;;
74415;SDS011;62850;42.428;25.618;2023-05-29T02:04:39;9.45;;;4.40;;
74415;SDS011;62850;42.428;25.618;2023-05-29T02:07:05;11.05;;;4.63;;
74415;SDS011;62850;42.428;25.618;2023-05-29T02:09:31;6.32;;;4.57;;
74415;SDS011;62850;42.428;25.618;2023-05-29T02:11:57;7.72;;;4.00;;
74415;SDS011;62850;42.428;25.618;2023-05-29T02:14:23;7.32;;;4.25;;
74415;SDS011;62850;42.428;25.618;2023-05-29T02:16:51;8.32;;;4.40;;
74415;SDS011;62850;42.428;25.618;2023-05-29T02:19:18;7.25;;;4.07;;
74415;SDS011;62850;42.428;25.618;2023-05-29T02:21:43;8.27;;;4.20;;
74415;SDS011;62850;42.428;25.618;2023-05-29T02:24:09;6.88;;;4.75;;
74415;SDS011;62850;42.428;25.618;2023-05-29T02:26:35;7.47;;;4.32;;
74415;SDS011;62850;42.428;25.618;2023-05-29T02:29:03;6.97;;;4.30;;
74415;SDS011;62850;42.428;25.618;2023-05-29T02:31:31;7.32;;;4.45;;
74415;SDS011;62850;42.428;25.618;2023-05-29T02:33:57;9.65;;;4.35;;
74415;SDS011;62850;42.428;25.618;2023-05-29T02:36:22;6.82;;;4.10;;
74415;SDS011;62850;42.428;25.618;2023-05-29T02:38:48;8.30;;;4.10;;
74415;SDS011;62850;42.428;25.618;2023-05-29T02:41:13;6.25;;;3.90;;
74415;SDS011;62850;42.428;25.618;2023-05-29T02:43:39;6.70;;;4.50;;
74415;SDS011;62850;42.428;25.618;2023-05-29T02:46:05;8.27;;;4.72;;
74415;SDS011;62850;42.428;25.618;2023-05-29T02:48:30;7.75;;;4.15;;
74415;SDS011;62850;42.428;25.618;2023-05-29T02:50:56;7.40;;;4.30;;
74415;SDS011;62850;42.428;25.618;2023-05-29T02:53:21;7.35;;;4.60;;
74415;SDS011;62850;42.428;25.618;2023-05-29T02:55:47;6.82;;;4.30;;
74415;SDS011;62850;42.428;25.618;2023-05-29T02:58:14;7.82;;;4.30;;
74415;SDS011;62850;42.428;25.618;2023-05-29T03:00:41;6.80;;;4.20;;
74415;SDS011;62850;42.428;25.618;2023-05-29T03:03:07;8.25;;;4.28;;
74415;SDS011;62850;42.428;25.618;2023-05-29T03:05:32;10.05;;;4.18;;
74415;SDS011;62850;42.428;25.618;2023-05-29T03:07:57;6.32;;;4.03;;
74415;SDS011;62850;42.428;25.618;2023-05-29T03:10:23;7.40;;;4.72;;
74415;SDS011;62850;42.428;25.618;2023-05-29T03:12:48;7.22;;;4.50;;
74415;SDS011;62850;42.428;25.618;2023-05-29T03:15:14;8.10;;;4.38;;
74415;SDS011;62850;42.428;25.618;2023-05-29T03:17:39;6.20;;;4.35;;
74415;SDS011;62850;42.428;25.618;2023-05-29T03:20:05;7.03;;;4.30;;
74415;SDS011;62850;42.428;25.618;2023-05-29T03:22:33;7.85;;;4.30;;
74415;SDS011;62850;42.428;25.618;2023-05-29T03:25:00;6.47;;;4.10;;
74415;SDS011;62850;42.428;25.618;2023-05-29T03:27:26;6.75;;;4.20;;
74415;SDS011;62850;42.428;25.618;2023-05-29T03:29:52;7.43;;;4.30;;
74415;SDS011;62850;42.428;25.618;2023-05-29T03:32:18;7.68;;;4.32;;
74415;SDS011;62850;42.428;25.618;2023-05-29T03:34:43;7.97;;;5.05;;
74415;SDS011;62850;42.428;25.618;2023-05-29T03:37:09;6.88;;;4.00;;
74415;SDS011;62850;42.428;25.618;2023-05-29T03:39:35;7.63;;;4.68;;
74415;SDS011;62850;42.428;25.618;2023-05-29T03:42:00;8.15;;;5.22;;
74415;SDS011;62850;42.428;25.618;2023-05-29T03:44:27;8.75;;;4.75;;
74415;SDS011;62850;42.428;25.618;2023-05-29T03:46:53;8.15;;;4.43;;
74415;SDS011;62850;42.428;25.618;2023-05-29T03:49:19;6.90;;;4.00;;
74415;SDS011;62850;42.428;25.618;2023-05-29T03:51:44;7.20;;;4.63;;
74415;SDS011;62850;42.428;25.618;2023-05-29T03:54:10;6.70;;;4.50;;
74415;SDS011;62850;42.428;25.618;2023-05-29T03:56:35;8.32;;;5.13;;
74415;SDS011;62850;42.428;25.618;2023-05-29T03:59:01;8.63;;;4.32;;
74415;SDS011;62850;42.428;25.618;2023-05-29T04:01:27;7.18;;;4.70;;
74415;SDS011;62850;42.428;25.618;2023-05-29T04:03:53;6.65;;;4.20;;
74415;SDS011;62850;42.428;25.618;2023-05-29T04:06:18;7.22;;;4.35;;
74415;SDS011;62850;42.428;25.618;2023-05-29T04:08:44;8.32;;;4.38;;
74415;SDS011;62850;42.428;25.618;2023-05-29T04:11:10;7.03;;;3.85;;
74415;SDS011;62850;42.428;25.618;2023-05-29T04:13:37;6.75;;;3.80;;
74415;SDS011;62850;42.428;25.618;2023-05-29T04:16:03;7.45;;;3.90;;
74415;SDS011;62850;42.428;25.618;2023-05-29T04:18:28;8.80;;;4.32;;
74415;SDS011;62850;42.428;25.618;2023-05-29T04:20:54;5.95;;;4.13;;
74415;SDS011;62850;42.428;25.618;2023-05-29T04:23:20;7.40;;;4.03;;
74415;SDS011;62850;42.428;25.618;2023-05-29T04:25:46;8.27;;;4.03;;
74415;SDS011;62850;42.428;25.618;2023-05-29T04:28:12;8.93;;;3.95;;
74415;SDS011;62850;42.428;25.618;2023-05-29T04:30:37;6.93;;;3.67;;
74415;SDS011;62850;42.428;25.618;2023-05-29T04:33:04;6.78;;;4.22;;
74415;SDS011;62850;42.428;25.618;2023-05-29T04:35:30;6.28;;;3.70;;
74415;SDS011;62850;42.428;25.618;2023-05-29T04:37:55;6.80;;;3.83;;
74415;SDS011;62850;42.428;25.618;2023-05-29T04:40:21;6.97;;;3.70;;
74415;SDS011;62850;42.428;25.618;2023-05-29T04:42:47;7.05;;;4.32;;
74415;SDS011;62850;42.428;25.618;2023-05-29T04:45:12;5.75;;;3.55;;
74415;SDS011;62850;42.428;25.618;2023-05-29T04:47:38;7.05;;;4.03;;
74415;SDS011;62850;42.428;25.618;2023-05-29T04:50:10;6.50;;;3.90;;
74415;SDS011;62850;42.428;25.618;2023-05-29T04:52:36;7.68;;;4.00;;
74415;SDS011;62850;42.428;25.618;2023-05-29T04:55:02;5.38;;;3.13;;
74415;SDS011;62850;42.428;25.618;2023-05-29T04:57:28;6.03;;;3.67;;
74415;SDS011;62850;42.428;25.618;2023-05-29T04:59:53;9.48;;;3.60;;
74415;SDS011;62850;42.428;25.618;2023-05-29T05:02:19;7.13;;;3.33;;
74415;SDS011;62850;42.428;25.618;2023-05-29T05:04:45;5.70;;;3.30;;
74415;SDS011;62850;42.428;25.618;2023-05-29T05:07:11;5.72;;;3.22;;
74415;SDS011;62850;42.428;25.618;2023-05-29T05:09:37;5.63;;;3.10;;
74415;SDS011;62850;42.428;25.618;2023-05-29T05:12:02;4.60;;;2.83;;
74415;SDS011;62850;42.428;25.618;2023-05-29T05:14:28;6.35;;;3.08;;
74415;SDS011;62850;42.428;25.618;2023-05-29T05:16:54;6.05;;;2.97;;
74415;SDS011;62850;42.428;25.618;2023-05-29T05:19:19;6.22;;;3.20;;
74415;SDS011;62850;42.428;25.618;2023-05-29T05:21:45;5.20;;;3.08;;
74415;SDS011;62850;42.428;25.618;2023-05-29T05:24:10;7.20;;;3.00;;
74415;SDS011;62850;42.428;25.618;2023-05-29T05:26:36;6.00;;;3.20;;
74415;SDS011;62850;42.428;25.618;2023-05-29T05:29:01;5.95;;;3.45;;
74415;SDS011;62850;42.428;25.618;2023-05-29T05:31:27;5.68;;;3.00;;
74415;SDS011;62850;42.428;25.618;2023-05-29T05:33:52;6.80;;;4.30;;
74415;SDS011;62850;42.428;25.618;2023-05-29T05:36:18;5.03;;;3.25;;
74415;SDS011;62850;42.428;25.618;2023-05-29T05:38:43;5.25;;;3.50;;
74415;SDS011;62850;42.428;25.618;2023-05-29T05:41:09;6.32;;;3.45;;
74415;SDS011;62850;42.428;25.618;2023-05-29T05:43:35;5.47;;;3.38;;
74415;SDS011;62850;42.428;25.618;2023-05-29T05:46:00;5.38;;;3.70;;
74415;SDS011;62850;42.428;25.618;2023-05-29T05:48:26;6.70;;;3.15;;
74415;SDS011;62850;42.428;25.618;2023-05-29T05:50:51;6.28;;;3.30;;
74415;SDS011;62850;42.428;25.618;2023-05-29T05:53:17;6.20;;;3.67;;
74415;SDS011;62850;42.428;25.618;2023-05-29T05:55:42;6.30;;;3.35;;
74415;SDS011;62850;42.428;25.618;2023-05-29T05:58:08;6.28;;;3.42;;
74415;SDS011;62850;42.428;25.618;2023-05-29T06:00:34;7.05;;;3.80;;
74415;SDS011;62850;42.428;25.618;2023-05-29T06:02:59;9.02;;;3.97;;
74415;SDS011;62850;42.428;25.618;2023-05-29T06:05:27;7.00;;;3.70;;
74415;SDS011;62850;42.428;25.618;2023-05-29T06:07:53;7.70;;;3.70;;
74415;SDS011;62850;42.428;25.618;2023-05-29T06:10:18;6.93;;;3.63;;
74415;SDS011;62850;42.428;25.618;2023-05-29T06:12:44;6.30;;;3.97;;
74415;SDS011;62850;42.428;25.618;2023-05-29T06:15:10;6.05;;;3.72;;
74415;SDS011;62850;42.428;25.618;2023-05-29T06:17:35;7.82;;;4.07;;
74415;SDS011;62850;42.428;25.618;2023-05-29T06:20:01;7.72;;;4.30;;
74415;SDS011;62850;42.428;25.618;2023-05-29T06:22:26;5.82;;;3.85;;
74415;SDS011;62850;42.428;25.618;2023-05-29T06:24:51;7.50;;;4.10;;
74415;SDS011;62850;42.428;25.618;2023-05-29T06:27:17;7.72;;;4.43;;
74415;SDS011;62850;42.428;25.618;2023-05-29T06:29:43;7.05;;;3.92;;
74415;SDS011;62850;42.428;25.618;2023-05-29T06:32:09;6.20;;;3.63;;
74415;SDS011;62850;42.428;25.618;2023-05-29T06:34:34;4.90;;;2.88;;
74415;SDS011;62850;42.428;25.618;2023-05-29T06:37:00;5.88;;;3.10;;
74415;SDS011;62850;42.428;25.618;2023-05-29T06:39:26;5.20;;;2.58;;
74415;SDS011;62850;42.428;25.618;2023-05-29T06:41:51;4.70;;;3.15;;
74415;SDS011;62850;42.428;25.618;2023-05-29T06:44:17;6.63;;;2.85;;
74415;SDS011;62850;42.428;25.618;2023-05-29T06:46:42;5.88;;;3.00;;
74415;SDS011;62850;42.428;25.618;2023-05-29T06:49:07;4.72;;;2.92;;
74415;SDS011;62850;42.428;25.618;2023-05-29T06:51:33;6.68;;;3.15;;
74415;SDS011;62850;42.428;25.618;2023-05-29T06:53:59;5.78;;;3.28;;
74415;SDS011;62850;42.428;25.618;2023-05-29T06:56:24;4.68;;;3.10;;
74415;SDS011;62850;42.428;25.618;2023-05-29T06:58:51;5.88;;;2.85;;
74415;SDS011;62850;42.428;25.618;2023-05-29T07:01:17;6.20;;;3.47;;
74415;SDS011;62850;42.428;25.618;2023-05-29T07:03:43;5.40;;;3.03;;
74415;SDS011;62850;42.428;25.618;2023-05-29T07:06:08;5.28;;;3.03;;
74415;SDS011;62850;42.428;25.618;2023-05-29T07:08:35;4.78;;;2.53;;
74415;SDS011;62850;42.428;25.618;2023-05-29T07:11:01;4.75;;;2.80;;
74415;SDS011;62850;42.428;25.618;2023-05-29T07:13:26;5.60;;;2.90;;
74415;SDS011;62850;42.428;25.618;2023-05-29T07:15:52;5.32;;;3.08;;
74415;SDS011;62850;42.428;25.618;2023-05-29T07:18:17;6.00;;;3.45;;
74415;SDS011;62850;42.428;25.618;2023-05-29T07:20:43;5.50;;;3.30;;
74415;SDS011;62850;42.428;25.618;2023-05-29T07:23:09;6.50;;;3.40;;
74415;SDS011;62850;42.428;25.618;2023-05-29T07:25:34;6.53;;;2.85;;
74415;SDS011;62850;42.428;25.618;2023-05-29T07:28:00;4.75;;;2.42;;
74415;SDS011;62850;42.428;25.618;2023-05-29T07:30:25;5.35;;;2.70;;
74415;SDS011;62850;42.428;25.618;2023-05-29T07:32:51;4.60;;;2.90;;
74415;SDS011;62850;42.428;25.618;2023-05-29T07:35:16;5.78;;;3.28;;
74415;SDS011;62850;42.428;25.618;2023-05-29T07:37:42;5.35;;;2.45;;
74415;SDS011;62850;42.428;25.618;2023-05-29T07:40:07;4.10;;;2.55;;
74415;SDS011;62850;42.428;25.618;2023-05-29T07:42:34;6.40;;;2.85;;
74415;SDS011;62850;42.428;25.618;2023-05-29T07:44:59;7.47;;;3.75;;
74415;SDS011;62850;42.428;25.618;2023-05-29T07:47:25;5.57;;;3.05;;
74415;SDS011;62850;42.428;25.618;2023-05-29T07:49:51;6.72;;;2.45;;
74415;SDS011;62850;42.428;25.618;2023-05-29T07:52:17;4.85;;;2.40;;
74415;SDS011;62850;42.428;25.618;2023-05-29T07:54:43;6.93;;;2.63;;
74415;SDS011;62850;42.428;25.618;2023-05-29T07:57:08;5.63;;;2.75;;
74415;SDS011;62850;42.428;25.618;2023-05-29T07:59:35;4.53;;;2.60;;
74415;SDS011;62850;42.428;25.618;2023-05-29T08:02:06;6.65;;;2.83;;
74415;SDS011;62850;42.428;25.618;2023-05-29T08:04:31;4.68;;;2.30;;
74415;SDS011;62850;42.428;25.618;2023-05-29T08:06:57;4.20;;;2.15;;
74415;SDS011;62850;42.428;25.618;2023-05-29T08:09:24;5.20;;;2.53;;
74415;SDS011;62850;42.428;25.618;2023-05-29T08:11:50;7.18;;;2.92;;
74415;SDS011;62850;42.428;25.618;2023-05-29T08:14:16;3.75;;;2.20;;
74415;SDS011;62850;42.428;25.618;2023-05-29T08:16:41;4.30;;;2.63;;
74415;SDS011;62850;42.428;25.618;2023-05-29T08:19:07;6.78;;;2.70;;
74415;SDS011;62850;42.428;25.618;2023-05-29T08:21:33;4.57;;;2.03;;
74415;SDS011;62850;42.428;25.618;2023-05-29T08:23:59;5.78;;;2.53;;
74415;SDS011;62850;42.428;25.618;2023-05-29T08:26:25;3.80;;;1.90;;
74415;SDS011;62850;42.428;25.618;2023-05-29T08:28:51;6.63;;;2.20;;
74415;SDS011;62850;42.428;25.618;2023-05-29T08:31:17;4.18;;;2.17;;
74415;SDS011;62850;42.428;25.618;2023-05-29T08:33:42;3.85;;;1.90;;
74415;SDS011;62850;42.428;25.618;2023-05-29T08:36:08;5.97;;;2.15;;
74415;SDS011;62850;42.428;25.618;2023-05-29T08:38:34;5.38;;;2.33;;
74415;SDS011;62850;42.428;25.618;2023-05-29T08:41:00;4.95;;;2.20;;
74415;SDS011;62850;42.428;25.618;2023-05-29T08:43:28;4.47;;;2.40;;
74415;SDS011;62850;42.428;25.618;2023-05-29T08:45:56;5.25;;;2.30;;
74415;SDS011;62850;42.428;25.618;2023-05-29T08:48:26;4.88;;;2.08;;
74415;SDS011;62850;42.428;25.618;2023-05-29T08:50:54;5.15;;;1.77;;
74415;SDS011;62850;42.428;25.618;2023-05-29T08:53:21;4.28;;;2.20;;
74415;SDS011;62850;42.428;25.618;2023-05-29T08:55:48;4.55;;;2.05;;
74415;SDS011;62850;42.428;25.618;2023-05-29T08:58:16;4.65;;;1.80;;
74415;SDS011;62850;42.428;25.618;2023-05-29T09:00:41;3.83;;;1.92;;
74415;SDS011;62850;42.428;25.618;2023-05-29T09:03:07;3.85;;;1.90;;
74415;SDS011;62850;42.428;25.618;2023-05-29T09:05:33;5.80;;;2.10;;
74415;SDS011;62850;42.428;25.618;2023-05-29T09:07:59;4.20;;;2.22;;
74415;SDS011;62850;42.428;25.618;2023-05-29T09:10:25;5.50;;;2.28;;
74415;SDS011;62850;42.428;25.618;2023-05-29T09:12:51;4.60;;;2.10;;
74415;SDS011;62850;42.428;25.618;2023-05-29T09:15:21;3.50;;;1.80;;
74415;SDS011;62850;42.428;25.618;2023-05-29T09:17:51;4.95;;;2.30;;
74415;SDS011;62850;42.428;25.618;2023-05-29T09:20:18;5.13;;;2.60;;
74415;SDS011;62850;42.428;25.618;2023-05-29T09:25:30;6.82;;;2.42;;
74415;SDS011;62850;42.428;25.618;2023-05-29T09:30:40;4.20;;;2.40;;
74415;SDS011;62850;42.428;25.618;2023-05-29T09:33:11;3.95;;;2.00;;
74415;SDS011;62850;42.428;25.618;2023-05-29T09:38:11;4.50;;;1.90;;
74415;SDS011;62850;42.428;25.618;2023-05-29T09:40:38;3.65;;;1.90;;
74415;SDS011;62850;42.428;25.618;2023-05-29T09:43:09;4.15;;;2.00;;
74415;SDS011;62850;42.428;25.618;2023-05-29T09:45:38;3.20;;;1.75;;
74415;SDS011;62850;42.428;25.618;2023-05-29T09:50:32;3.63;;;2.00;;
74415;SDS011;62850;42.428;25.618;2023-05-29T09:52:58;4.53;;;2.03;;
74415;SDS011;62850;42.428;25.618;2023-05-29T09:55:26;4.07;;;2.00;;
74415;SDS011;62850;42.428;25.618;2023-05-29T09:57:53;3.40;;;2.10;;
74415;SDS011;62850;42.428;25.618;2023-05-29T10:00:22;3.10;;;1.73;;
74415;SDS011;62850;42.428;25.618;2023-05-29T10:02:48;3.90;;;2.10;;
74415;SDS011;62850;42.428;25.618;2023-05-29T10:05:14;3.97;;;2.00;;
74415;SDS011;62850;42.428;25.618;2023-05-29T10:07:44;4.57;;;1.70;;
74415;SDS011;62850;42.428;25.618;2023-05-29T10:10:14;4.85;;;2.45;;
74415;SDS011;62850;42.428;25.618;2023-05-29T10:12:47;3.78;;;1.80;;
74415;SDS011;62850;42.428;25.618;2023-05-29T10:15:14;5.93;;;2.30;;
74415;SDS011;62850;42.428;25.618;2023-05-29T10:17:51;5.38;;;2.15;;
74415;SDS011;62850;42.428;25.618;2023-05-29T10:20:22;4.60;;;2.05;;
74415;SDS011;62850;42.428;25.618;2023-05-29T10:22:49;3.67;;;2.10;;
74415;SDS011;62850;42.428;25.618;2023-05-29T10:25:19;4.75;;;2.50;;
74415;SDS011;62850;42.428;25.618;2023-05-29T10:27:46;3.80;;;2.20;;
74415;SDS011;62850;42.428;25.618;2023-05-29T10:38:18;3.60;;;2.00;;
74415;SDS011;62850;42.428;25.618;2023-05-29T10:40:46;6.72;;;2.10;;
74415;SDS011;62850;42.428;25.618;2023-05-29T10:43:34;6.00;;;3.05;;
74415;SDS011;62850;42.428;25.618;2023-05-29T10:45:58;5.20;;;2.20;;
74415;SDS011;62850;42.428;25.618;2023-05-29T10:50:53;4.38;;;1.98;;
74415;SDS011;62850;42.428;25.618;2023-05-29T10:53:24;3.55;;;1.88;;
74415;SDS011;62850;42.428;25.618;2023-05-29T10:55:51;4.10;;;2.22;;
74415;SDS011;62850;42.428;25.618;2023-05-29T10:58:18;4.25;;;2.28;;
74415;SDS011;62850;42.428;25.618;2023-05-29T11:00:46;4.60;;;2.15;;
74415;SDS011;62850;42.428;25.618;2023-05-29T11:03:17;4.18;;;2.17;;
74415;SDS011;62850;42.428;25.618;2023-05-29T11:05:55;4.80;;;2.30;;
74415;SDS011;62850;42.428;25.618;2023-05-29T11:13:55;7.78;;;2.03;;
74415;SDS011;62850;42.428;25.618;2023-05-29T11:18:51;5.00;;;2.30;;
74415;SDS011;62850;42.428;25.618;2023-05-29T11:24:03;7.38;;;2.60;;
74415;SDS011;62850;42.428;25.618;2023-05-29T11:26:30;6.63;;;2.88;;
74415;SDS011;62850;42.428;25.618;2023-05-29T11:29:00;6.00;;;2.88;;
74415;SDS011;62850;42.428;25.618;2023-05-29T11:31:26;7.10;;;2.90;;
74415;SDS011;62850;42.428;25.618;2023-05-29T11:33:56;6.40;;;3.08;;
74415;SDS011;62850;42.428;25.618;2023-05-29T11:36:25;6.80;;;2.97;;
74415;SDS011;62850;42.428;25.618;2023-05-29T11:38:51;10.93;;;3.88;;
74415;SDS011;62850;42.428;25.618;2023-05-29T11:41:17;7.82;;;3.65;;
74415;SDS011;62850;42.428;25.618;2023-05-29T11:43:43;6.90;;;3.17;;
74415;SDS011;62850;42.428;25.618;2023-05-29T11:46:18;7.90;;;3.08;;
74415;SDS011;62850;42.428;25.618;2023-05-29T11:48:47;6.18;;;3.20;;
74415;SDS011;62850;42.428;25.618;2023-05-29T11:51:14;6.47;;;3.15;;
74415;SDS011;62850;42.428;25.618;2023-05-29T11:53:41;6.93;;;3.22;;
74415;SDS011;62850;42.428;25.618;2023-05-29T11:56:09;6.80;;;3.90;;
74415;SDS011;62850;42.428;25.618;2023-05-29T11:58:36;9.02;;;3.78;;
74415;SDS011;62850;42.428;25.618;2023-05-29T12:01:02;9.48;;;4.50;;
74415;SDS011;62850;42.428;25.618;2023-05-29T12:03:28;18.83;;;6.38;;
74415;SDS011;62850;42.428;25.618;2023-05-29T12:05:54;16.48;;;6.95;;
74415;SDS011;62850;42.428;25.618;2023-05-29T12:08:23;12.52;;;6.43;;
74415;SDS011;62850;42.428;25.618;2023-05-29T12:10:51;14.02;;;8.13;;
74415;SDS011;62850;42.428;25.618;2023-05-29T12:13:20;18.25;;;9.10;;
74415;SDS011;62850;42.428;25.618;2023-05-29T12:15:47;15.85;;;8.30;;
74415;SDS011;62850;42.428;25.618;2023-05-29T12:18:14;15.85;;;7.57;;
74415;SDS011;62850;42.428;25.618;2023-05-29T12:20:41;17.27;;;8.00;;
74415;SDS011;62850;42.428;25.618;2023-05-29T12:23:07;18.83;;;8.60;;
74415;SDS011;62850;42.428;25.618;2023-05-29T12:25:33;14.52;;;7.28;;
74415;SDS011;62850;42.428;25.618;2023-05-29T12:28:02;15.15;;;7.22;;
74415;SDS011;62850;42.428;25.618;2023-05-29T12:30:27;15.73;;;7.38;;
74415;SDS011;62850;42.428;25.618;2023-05-29T12:32:53;12.07;;;7.35;;
74415;SDS011;62850;42.428;25.618;2023-05-29T12:35:20;11.45;;;6.15;;
74415;SDS011;62850;42.428;25.618;2023-05-29T12:40:35;11.45;;;6.93;;
74415;SDS011;62850;42.428;25.618;2023-05-29T12:43:05;13.65;;;6.65;;
74415;SDS011;62850;42.428;25.618;2023-05-29T12:45:32;10.80;;;6.28;;
74415;SDS011;62850;42.428;25.618;2023-05-29T12:47:59;12.00;;;6.72;;
74415;SDS011;62850;42.428;25.618;2023-05-29T12:50:29;9.98;;;5.78;;
74415;SDS011;62850;42.428;25.618;2023-05-29T12:55:27;10.15;;;5.63;;
74415;SDS011;62850;42.428;25.618;2023-05-29T12:57:54;8.68;;;5.97;;
74415;SDS011;62850;42.428;25.618;2023-05-29T13:00:20;10.57;;;6.65;;
74415;SDS011;62850;42.428;25.618;2023-05-29T13:02:46;9.95;;;6.63;;
74415;SDS011;62850;42.428;25.618;2023-05-29T13:05:13;10.98;;;7.15;;
74415;SDS011;62850;42.428;25.618;2023-05-29T13:07:40;10.25;;;6.32;;
74415;SDS011;62850;42.428;25.618;2023-05-29T13:10:07;14.35;;;7.68;;
74415;SDS011;62850;42.428;25.618;2023-05-29T13:12:32;10.52;;;6.97;;
74415;SDS011;62850;42.428;25.618;2023-05-29T13:14:59;10.55;;;7.40;;
74415;SDS011;62850;42.428;25.618;2023-05-29T13:17:25;16.80;;;7.95;;
74415;SDS011;62850;42.428;25.618;2023-05-29T13:19:50;12.95;;;7.53;;
74415;SDS011;62850;42.428;25.618;2023-05-29T13:22:15;14.00;;;8.90;;
74415;SDS011;62850;42.428;25.618;2023-05-29T13:24:41;15.18;;;8.68;;
74415;SDS011;62850;42.428;25.618;2023-05-29T13:27:07;11.30;;;6.20;;
74415;SDS011;62850;42.428;25.618;2023-05-29T13:29:32;13.45;;;7.03;;
74415;SDS011;62850;42.428;25.618;2023-05-29T13:31:58;6.18;;;4.40;;
74415;SDS011;62850;42.428;25.618;2023-05-29T13:34:24;4.82;;;2.80;;
74415;SDS011;62850;42.428;25.618;2023-05-29T13:36:54;5.28;;;3.03;;
74415;SDS011;62850;42.428;25.618;2023-05-29T13:39:20;6.07;;;2.70;;
74415;SDS011;62850;42.428;25.618;2023-05-29T13:41:45;4.93;;;2.83;;
74415;SDS011;62850;42.428;25.618;2023-05-29T13:44:11;5.40;;;2.65;;
74415;SDS011;62850;42.428;25.618;2023-05-29T13:46:37;4.90;;;2.50;;
74415;SDS011;62850;42.428;25.618;2023-05-29T13:49:02;4.18;;;2.25;;
74415;SDS011;62850;42.428;25.618;2023-05-29T13:51:28;6.22;;;2.47;;
74415;SDS011;62850;42.428;25.618;2023-05-29T13:53:53;4.55;;;2.30;;
74415;SDS011;62850;42.428;25.618;2023-05-29T13:56:19;4.28;;;2.22;;
74415;SDS011;62850;42.428;25.618;2023-05-29T13:58:44;3.92;;;2.00;;
74415;SDS011;62850;42.428;25.618;2023-05-29T14:01:10;3.78;;;2.60;;
74415;SDS011;62850;42.428;25.618;2023-05-29T14:03:35;4.25;;;2.13;;
74415;SDS011;62850;42.428;25.618;2023-05-29T14:06:01;4.50;;;2.22;;
74415;SDS011;62850;42.428;25.618;2023-05-29T14:08:30;6.03;;;2.15;;
74415;SDS011;62850;42.428;25.618;2023-05-29T14:10:55;5.90;;;2.42;;
74415;SDS011;62850;42.428;25.618;2023-05-29T14:13:21;6.05;;;2.20;;
74415;SDS011;62850;42.428;25.618;2023-05-29T14:15:46;4.18;;;1.90;;
74415;SDS011;62850;42.428;25.618;2023-05-29T14:18:14;3.45;;;2.13;;
74415;SDS011;62850;42.428;25.618;2023-05-29T14:20:39;3.47;;;2.22;;
74415;SDS011;62850;42.428;25.618;2023-05-29T14:23:05;3.25;;;2.03;;
74415;SDS011;62850;42.428;25.618;2023-05-29T14:25:30;4.45;;;2.35;;
74415;SDS011;62850;42.428;25.618;2023-05-29T14:27:56;4.30;;;2.45;;
74415;SDS011;62850;42.428;25.618;2023-05-29T14:30:21;3.65;;;2.03;;
74415;SDS011;62850;42.428;25.618;2023-05-29T14:32:47;4.63;;;2.40;;
74415;SDS011;62850;42.428;25.618;2023-05-29T14:35:13;5.15;;;1.90;;
74415;SDS011;62850;42.428;25.618;2023-05-29T14:37:38;4.70;;;2.47;;
74415;SDS011;62850;42.428;25.618;2023-05-29T14:40:04;6.72;;;2.42;;
74415;SDS011;62850;42.428;25.618;2023-05-29T14:42:30;4.68;;;1.90;;
74415;SDS011;62850;42.428;25.618;2023-05-29T14:44:58;4.47;;;1.98;;
74415;SDS011;62850;42.428;25.618;2023-05-29T14:47:23;4.18;;;2.17;;
74415;SDS011;62850;42.428;25.618;2023-05-29T14:49:49;4.45;;;2.40;;
74415;SDS011;62850;42.428;25.618;2023-05-29T14:52:14;4.82;;;2.30;;
74415;SDS011;62850;42.428;25.618;2023-05-29T14:54:40;5.05;;;2.78;;
74415;SDS011;62850;42.428;25.618;2023-05-29T14:57:05;7.20;;;2.67;;
74415;SDS011;62850;42.428;25.618;2023-05-29T14:59:31;5.32;;;2.60;;
74415;SDS011;62850;42.428;25.618;2023-05-29T15:01:56;5.10;;;2.20;;
74415;SDS011;62850;42.428;25.618;2023-05-29T15:04:23;3.95;;;2.42;;
74415;SDS011;62850;42.428;25.618;2023-05-29T15:06:49;4.65;;;2.42;;
74415;SDS011;62850;42.428;25.618;2023-05-29T15:09:14;4.50;;;2.20;;
74415;SDS011;62850;42.428;25.618;2023-05-29T15:11:40;4.00;;;2.20;;
74415;SDS011;62850;42.428;25.618;2023-05-29T15:14:05;4.90;;;2.90;;
74415;SDS011;62850;42.428;25.618;2023-05-29T15:16:31;4.63;;;2.88;;